Time;durP1;ratioP1;P1;durP2;ratioP2;P2;SDS_P1;SDS_P2;PMS_P1;PMS_P2;Temp;Humidity;BMP_temperature;BMP_pressure;BME280_temperature;BME280_humidity;BME280_pressure;Samples;Min_cycle;Max_cycle;Signal;HPM_P1;HPM_P2
2023/06/28 00:00:31;;;;;;;4.50;1.30;;;16.20;99.90;;;;;;5072049;28;20458;-69
2023/06/28 00:02:56;;;;;;;4.85;1.65;;;16.20;99.90;;;;;;5071161;28;20033;-69
2023/06/28 00:05:22;;;;;;;5.10;1.58;;;16.10;99.90;;;;;;5071793;28;20024;-70
2023/06/28 00:07:48;;;;;;;4.65;1.30;;;16.10;99.90;;;;;;5073396;28;20030;-69
2023/06/28 00:10:14;;;;;;;5.32;1.73;;;16.00;99.90;;;;;;5072709;28;20016;-69
2023/06/28 00:12:39;;;;;;;5.90;1.80;;;16.00;99.90;;;;;;5063729;28;20035;-69
2023/06/28 00:15:06;;;;;;;4.75;2.25;;;16.00;99.90;;;;;;5067954;28;20140;-69
2023/06/28 00:17:31;;;;;;;5.63;1.85;;;15.90;99.90;;;;;;5053209;28;20109;-69
2023/06/28 00:19:58;;;;;;;6.95;1.95;;;15.90;99.90;;;;;;5051905;28;20060;-69
2023/06/28 00:22:30;;;;;;;6.95;2.83;;;15.80;99.90;;;;;;5064932;28;20029;-69
2023/06/28 00:24:57;;;;;;;8.48;2.05;;;15.80;99.90;;;;;;5072243;28;20526;-69
2023/06/28 00:27:23;;;;;;;5.25;2.50;;;15.80;99.90;;;;;;5071429;28;20497;-69
2023/06/28 00:29:48;;;;;;;9.30;2.47;;;15.70;99.90;;;;;;5072551;28;20028;-69
2023/06/28 00:32:14;;;;;;;6.43;2.78;;;15.70;99.90;;;;;;5072443;28;20028;-69
2023/06/28 00:34:39;;;;;;;5.28;2.72;;;15.60;99.90;;;;;;5072748;28;20035;-69
2023/06/28 00:37:05;;;;;;;4.90;2.45;;;15.70;99.90;;;;;;5072131;28;20089;-69
2023/06/28 00:39:31;;;;;;;5.03;2.47;;;15.70;99.90;;;;;;5071098;28;20397;-69
2023/06/28 00:41:57;;;;;;;7.47;3.05;;;15.70;99.90;;;;;;5071821;28;20386;-70
2023/06/28 00:44:23;;;;;;;7.55;3.08;;;15.70;99.90;;;;;;5072320;28;20108;-70
2023/06/28 00:46:49;;;;;;;9.65;2.80;;;15.60;99.90;;;;;;5072420;28;20025;-70
2023/06/28 00:49:15;;;;;;;6.35;2.63;;;15.70;99.90;;;;;;5072303;28;20548;-71
2023/06/28 00:51:42;;;;;;;4.90;2.70;;;15.70;99.90;;;;;;5071980;28;20032;-70
2023/06/28 00:54:07;;;;;;;8.70;2.70;;;15.80;99.90;;;;;;5071691;28;20116;-70
2023/06/28 00:56:34;;;;;;;6.88;2.75;;;15.80;99.90;;;;;;5071738;28;20028;-70
2023/06/28 00:59:01;;;;;;;9.82;3.38;;;15.80;99.90;;;;;;5071599;28;20553;-70
2023/06/28 01:01:26;;;;;;;9.52;3.63;;;15.80;99.90;;;;;;5071888;28;20021;-70
2023/06/28 01:03:53;;;;;;;8.38;3.75;;;15.90;99.90;;;;;;5070058;28;20384;-70
2023/06/28 01:06:21;;;;;;;9.00;3.60;;;16.00;99.90;;;;;;5071660;28;20490;-70
2023/06/28 01:08:48;;;;;;;7.03;3.78;;;16.00;99.90;;;;;;5071603;28;20025;-70
2023/06/28 01:11:15;;;;;;;6.57;3.17;;;16.00;99.90;;;;;;5062694;28;20021;-70
2023/06/28 01:13:40;;;;;;;6.50;2.70;;;16.10;99.90;;;;;;5051753;28;20471;-70
2023/06/28 01:16:06;;;;;;;7.15;3.45;;;16.10;99.90;;;;;;5069930;28;20027;-70
2023/06/28 01:18:33;;;;;;;8.27;3.55;;;16.10;99.90;;;;;;5071691;28;20025;-70
2023/06/28 01:21:02;;;;;;;7.13;4.13;;;16.00;99.90;;;;;;5071108;28;20070;-70
2023/06/28 01:23:28;;;;;;;5.72;4.03;;;16.00;99.90;;;;;;5071391;28;20032;-70
2023/06/28 01:25:55;;;;;;;8.00;3.22;;;16.00;99.90;;;;;;5070631;28;20093;-71
2023/06/28 01:28:21;;;;;;;8.30;4.03;;;16.00;99.90;;;;;;5071224;28;20029;-70
2023/06/28 01:30:52;;;;;;;7.70;3.58;;;16.00;99.90;;;;;;5071276;28;20492;-70
2023/06/28 01:33:18;;;;;;;11.70;4.25;;;16.00;99.90;;;;;;5070838;28;20032;-70
2023/06/28 01:35:43;;;;;;;9.10;4.63;;;16.00;99.90;;;;;;5071519;28;20382;-70
2023/06/28 01:38:10;;;;;;;9.35;3.88;;;16.00;99.90;;;;;;5070826;28;20025;-70
2023/06/28 01:40:37;;;;;;;10.00;4.13;;;16.00;99.90;;;;;;5071207;28;20114;-70
2023/06/28 01:43:06;;;;;;;8.20;3.80;;;16.00;99.90;;;;;;5070729;28;20051;-70
2023/06/28 01:45:33;;;;;;;7.25;3.20;;;16.00;99.90;;;;;;5071183;28;20028;-70
2023/06/28 01:47:59;;;;;;;12.80;3.53;;;16.00;99.90;;;;;;5070931;28;20025;-70
2023/06/28 01:50:26;;;;;;;8.95;3.75;;;15.90;99.90;;;;;;5070932;28;20082;-70
2023/06/28 01:52:52;;;;;;;7.43;3.28;;;15.90;99.90;;;;;;5069541;28;20029;-70
2023/06/28 01:55:18;;;;;;;7.85;3.80;;;15.90;99.90;;;;;;5070759;28;20100;-70
2023/06/28 01:57:45;;;;;;;9.30;3.42;;;16.00;99.90;;;;;;5071230;28;20024;-70
2023/06/28 02:00:11;;;;;;;10.80;3.92;;;16.00;99.90;;;;;;5069327;28;20028;-70
2023/06/28 02:02:36;;;;;;;6.72;3.22;;;16.00;99.90;;;;;;5071328;28;20030;-70
2023/06/28 02:05:02;;;;;;;10.02;4.20;;;16.00;99.90;;;;;;5070677;28;20121;-70
2023/06/28 02:07:28;;;;;;;6.97;3.35;;;16.00;99.90;;;;;;5070934;28;20463;-70
2023/06/28 02:09:53;;;;;;;8.75;3.60;;;16.00;99.90;;;;;;5070117;28;20135;-70
2023/06/28 02:12:19;;;;;;;7.97;4.13;;;16.00;99.90;;;;;;5071020;28;20099;-70
2023/06/28 02:14:44;;;;;;;5.55;3.40;;;16.00;99.90;;;;;;5071102;28;20028;-70
2023/06/28 02:17:13;;;;;;;10.13;3.97;;;16.00;99.90;;;;;;5070239;28;20017;-70
2023/06/28 02:19:40;;;;;;;8.32;4.30;;;16.00;99.90;;;;;;5070960;28;20438;-70
2023/06/28 02:22:05;;;;;;;12.30;4.45;;;16.00;99.90;;;;;;5070576;28;20078;-70
2023/06/28 02:24:31;;;;;;;9.10;4.63;;;16.00;99.90;;;;;;5070486;28;20044;-70
2023/06/28 02:26:56;;;;;;;7.82;4.20;;;16.00;99.90;;;;;;5070661;28;20470;-71
2023/06/28 02:29:22;;;;;;;8.52;4.25;;;16.00;99.90;;;;;;5071113;28;20021;-70
2023/06/28 02:31:48;;;;;;;9.57;4.03;;;16.00;99.90;;;;;;5070956;28;20024;-70
2023/06/28 02:34:14;;;;;;;9.80;3.58;;;16.00;99.90;;;;;;5070858;28;20029;-70
2023/06/28 02:36:39;;;;;;;8.68;4.35;;;16.00;99.90;;;;;;5070886;28;20040;-70
2023/06/28 02:39:05;;;;;;;7.05;4.10;;;16.00;99.90;;;;;;5070093;28;20060;-70
2023/06/28 02:41:31;;;;;;;7.78;3.70;;;16.00;99.90;;;;;;5070661;28;20121;-70
2023/06/28 02:43:56;;;;;;;6.20;3.83;;;15.90;99.90;;;;;;5070588;28;20043;-70
2023/06/28 02:46:22;;;;;;;8.52;3.38;;;15.90;99.90;;;;;;5074763;28;20099;-70
2023/06/28 02:48:47;;;;;;;8.18;4.47;;;15.90;99.90;;;;;;5074913;28;20035;-70
2023/06/28 02:51:13;;;;;;;8.05;4.25;;;15.90;99.90;;;;;;5073112;28;20021;-70
2023/06/28 02:53:38;;;;;;;8.15;4.13;;;15.90;99.90;;;;;;5074417;28;20025;-70
2023/06/28 02:56:04;;;;;;;6.28;3.60;;;15.90;99.90;;;;;;5074004;28;20099;-70
2023/06/28 02:58:29;;;;;;;6.82;3.95;;;15.90;99.90;;;;;;5073082;28;20025;-70
2023/06/28 03:00:57;;;;;;;8.13;3.92;;;15.80;99.90;;;;;;5074038;28;20393;-70
2023/06/28 03:03:23;;;;;;;8.50;4.05;;;15.80;99.90;;;;;;5074391;28;20089;-70
2023/06/28 03:05:48;;;;;;;8.32;3.35;;;15.90;99.90;;;;;;5073789;28;20024;-70
2023/06/28 03:08:14;;;;;;;6.85;3.22;;;15.90;99.90;;;;;;5073789;28;20020;-71
2023/06/28 03:10:40;;;;;;;7.68;3.83;;;15.90;99.90;;;;;;5074506;28;20108;-70
2023/06/28 03:13:06;;;;;;;8.90;3.60;;;16.00;99.90;;;;;;5074053;28;20056;-70
2023/06/28 03:15:31;;;;;;;6.03;3.40;;;15.90;99.90;;;;;;5074430;28;20423;-70
2023/06/28 03:17:57;;;;;;;10.13;4.05;;;16.00;99.90;;;;;;5073556;28;20390;-70
2023/06/28 03:20:22;;;;;;;5.43;3.38;;;15.90;99.90;;;;;;5072749;28;20024;-70
2023/06/28 03:22:49;;;;;;;5.50;2.42;;;15.90;99.90;;;;;;5074092;28;20040;-70
2023/06/28 03:25:15;;;;;;;6.45;2.97;;;15.90;99.90;;;;;;5073687;28;20045;-70
2023/06/28 03:27:41;;;;;;;12.23;3.13;;;15.90;99.90;;;;;;5073878;28;20016;-70
2023/06/28 03:30:07;;;;;;;6.57;3.17;;;15.80;99.90;;;;;;5073306;28;20023;-70
2023/06/28 03:32:32;;;;;;;5.30;2.25;;;15.80;99.90;;;;;;5072664;28;20444;-70
2023/06/28 03:34:58;;;;;;;8.02;2.20;;;15.80;99.90;;;;;;5072175;28;20146;-70
2023/06/28 03:37:23;;;;;;;6.45;2.70;;;15.80;99.90;;;;;;5073869;28;20395;-70
2023/06/28 03:39:49;;;;;;;5.35;2.35;;;15.70;99.90;;;;;;5071893;28;20127;-70
2023/06/28 03:42:14;;;;;;;6.82;3.17;;;15.70;99.90;;;;;;5073782;28;20036;-70
2023/06/28 03:44:40;;;;;;;8.90;3.38;;;15.70;99.90;;;;;;5072740;28;20024;-70
2023/06/28 03:47:06;;;;;;;8.80;3.72;;;15.70;99.90;;;;;;5073275;28;20456;-70
2023/06/28 03:49:31;;;;;;;8.43;3.42;;;15.70;99.90;;;;;;5073477;28;20056;-70
2023/06/28 03:51:57;;;;;;;8.82;3.72;;;15.70;99.90;;;;;;5073133;28;20372;-70
2023/06/28 03:54:22;;;;;;;8.73;3.53;;;15.60;99.90;;;;;;5071557;28;20450;-71
2023/06/28 03:56:49;;;;;;;8.27;4.22;;;15.60;99.90;;;;;;5072610;28;20027;-70
2023/06/28 03:59:14;;;;;;;11.82;3.38;;;15.60;99.90;;;;;;5073604;28;20028;-70
2023/06/28 04:01:40;;;;;;;9.82;3.50;;;15.60;99.90;;;;;;5073497;28;20025;-70
2023/06/28 04:04:05;;;;;;;8.35;3.47;;;15.60;99.90;;;;;;5072909;28;20043;-70
2023/06/28 04:06:32;;;;;;;8.80;4.20;;;15.60;99.90;;;;;;5073089;28;20049;-70
2023/06/28 04:08:57;;;;;;;8.60;4.00;;;15.60;99.90;;;;;;5072415;28;20073;-70
2023/06/28 04:11:23;;;;;;;7.22;4.30;;;15.60;99.90;;;;;;5073188;28;20099;-70
2023/06/28 04:13:48;;;;;;;10.90;4.25;;;15.60;99.90;;;;;;5071473;28;20032;-70
2023/06/28 04:16:14;;;;;;;8.93;4.38;;;15.60;99.90;;;;;;5073039;28;20025;-70
2023/06/28 04:18:39;;;;;;;9.55;4.25;;;15.70;99.90;;;;;;5072863;28;20024;-70
2023/06/28 04:21:05;;;;;;;7.80;3.58;;;15.70;99.90;;;;;;5072404;28;20856;-70
2023/06/28 04:23:30;;;;;;;8.13;4.38;;;15.60;99.90;;;;;;5072415;28;20477;-70
2023/06/28 04:25:57;;;;;;;9.98;3.50;;;15.60;99.90;;;;;;5072180;28;20082;-70
2023/06/28 04:28:24;;;;;;;10.80;4.15;;;15.70;99.90;;;;;;5072630;28;20032;-70
2023/06/28 04:30:49;;;;;;;8.63;4.03;;;15.70;99.90;;;;;;5072342;28;20099;-70
2023/06/28 04:33:18;;;;;;;8.40;4.25;;;15.70;99.90;;;;;;5072953;28;20534;-70
2023/06/28 04:35:46;;;;;;;7.22;4.32;;;15.70;99.90;;;;;;5072552;28;20074;-70
2023/06/28 04:38:13;;;;;;;9.60;4.28;;;15.70;99.90;;;;;;5072072;28;20025;-70
2023/06/28 04:40:39;;;;;;;8.20;4.45;;;15.70;99.90;;;;;;5072255;28;20035;-70
2023/06/28 04:43:09;;;;;;;11.40;4.72;;;15.70;99.90;;;;;;5071839;28;20029;-70
2023/06/28 04:45:38;;;;;;;9.43;4.90;;;15.60;99.90;;;;;;5072368;28;20028;-70
2023/06/28 04:48:08;;;;;;;10.88;5.20;;;15.60;99.90;;;;;;5071711;28;20025;-70
2023/06/28 04:50:38;;;;;;;7.93;4.40;;;15.60;99.90;;;;;;5072475;28;20020;-70
2023/06/28 04:53:05;;;;;;;11.27;4.53;;;15.60;99.90;;;;;;5071431;28;20120;-70
2023/06/28 04:55:32;;;;;;;8.80;4.70;;;15.60;99.90;;;;;;5071672;28;20059;-70
2023/06/28 04:58:02;;;;;;;9.43;4.72;;;15.60;99.90;;;;;;5072036;28;20153;-70
2023/06/28 05:00:29;;;;;;;7.60;4.65;;;15.60;99.90;;;;;;5071890;28;20458;-70
2023/06/28 05:02:56;;;;;;;14.63;4.78;;;15.60;99.90;;;;;;5071483;28;20032;-70
2023/06/28 05:05:23;;;;;;;9.23;4.85;;;15.60;99.90;;;;;;5069362;28;20021;-70
2023/06/28 05:07:49;;;;;;;9.75;4.40;;;15.60;99.90;;;;;;5063106;28;20027;-70
2023/06/28 05:10:14;;;;;;;8.70;4.38;;;15.60;99.90;;;;;;5071776;28;20478;-70
2023/06/28 05:12:40;;;;;;;8.68;4.22;;;15.60;99.90;;;;;;5071907;28;20029;-70
2023/06/28 05:15:06;;;;;;;9.20;4.00;;;15.60;99.90;;;;;;5071467;28;20099;-70
2023/06/28 05:17:32;;;;;;;7.25;4.15;;;15.60;99.90;;;;;;5071830;28;20031;-70
2023/06/28 05:19:57;;;;;;;7.40;3.75;;;15.70;99.90;;;;;;5071049;28;20024;-70
2023/06/28 05:22:24;;;;;;;10.75;4.75;;;15.60;99.90;;;;;;5071796;28;20487;-70
2023/06/28 05:24:50;;;;;;;10.70;4.88;;;15.70;99.90;;;;;;5070789;28;20040;-70
2023/06/28 05:27:15;;;;;;;8.93;4.63;;;15.70;99.90;;;;;;5071506;28;20043;-70
2023/06/28 05:29:41;;;;;;;11.75;4.60;;;15.70;99.90;;;;;;5071447;28;20028;-70
2023/06/28 05:32:07;;;;;;;8.98;4.38;;;15.70;99.90;;;;;;5071004;28;20083;-70
2023/06/28 05:34:32;;;;;;;9.35;5.00;;;15.80;99.90;;;;;;5071106;28;20027;-70
2023/06/28 05:36:58;;;;;;;10.55;5.47;;;15.70;99.90;;;;;;5071351;28;20036;-70
2023/06/28 05:39:24;;;;;;;8.15;4.90;;;15.70;99.90;;;;;;5071414;28;20466;-70
2023/06/28 05:41:49;;;;;;;12.85;5.03;;;15.70;99.90;;;;;;5071209;28;20017;-71
2023/06/28 05:44:18;;;;;;;8.52;5.03;;;15.80;99.90;;;;;;5070863;28;20049;-70
2023/06/28 05:46:43;;;;;;;8.82;5.32;;;15.70;99.90;;;;;;5071305;28;20099;-70
2023/06/28 05:49:09;;;;;;;9.20;4.70;;;15.70;99.90;;;;;;5070883;28;20126;-70
2023/06/28 05:51:34;;;;;;;9.43;5.03;;;15.80;99.90;;;;;;5069591;28;20135;-70
2023/06/28 05:54:00;;;;;;;8.13;5.15;;;15.80;99.90;;;;;;5070607;28;20028;-70
2023/06/28 05:56:27;;;;;;;11.63;5.45;;;15.80;99.90;;;;;;5069590;28;20060;-70
2023/06/28 05:58:53;;;;;;;7.82;5.13;;;15.70;99.90;;;;;;5069497;28;20438;-70
2023/06/28 06:01:18;;;;;;;10.65;5.95;;;15.70;99.90;;;;;;5071087;28;20028;-70
2023/06/28 06:03:44;;;;;;;10.95;5.47;;;15.70;99.90;;;;;;5070864;28;20111;-70
2023/06/28 06:06:09;;;;;;;11.65;6.18;;;15.70;99.90;;;;;;5063737;28;20478;-70
2023/06/28 06:08:35;;;;;;;11.35;6.60;;;15.70;99.90;;;;;;5070895;28;20071;-70
2023/06/28 06:11:03;;;;;;;9.93;6.30;;;15.80;99.90;;;;;;5070692;28;20048;-70
2023/06/28 06:13:29;;;;;;;10.68;7.38;;;15.80;99.90;;;;;;5070697;28;20079;-70
2023/06/28 06:15:54;;;;;;;13.48;7.03;;;15.80;99.90;;;;;;5070761;28;20025;-70
2023/06/28 06:18:20;;;;;;;14.93;7.90;;;15.80;99.90;;;;;;5070258;28;20047;-70
2023/06/28 06:20:45;;;;;;;12.15;7.50;;;15.80;99.90;;;;;;5070620;28;20024;-70
2023/06/28 06:23:11;;;;;;;11.07;6.47;;;15.80;99.90;;;;;;5070262;28;20060;-70
2023/06/28 06:25:37;;;;;;;11.27;6.53;;;15.80;99.90;;;;;;5069241;28;20402;-70
2023/06/28 06:28:02;;;;;;;14.02;6.93;;;15.90;99.90;;;;;;5070219;28;20039;-70
2023/06/28 06:30:28;;;;;;;11.32;7.00;;;15.90;99.90;;;;;;5070603;28;20025;-70
2023/06/28 06:32:54;;;;;;;13.18;8.18;;;15.90;99.90;;;;;;5070389;28;20081;-70
2023/06/28 06:35:19;;;;;;;15.30;7.82;;;15.90;99.90;;;;;;5070464;28;20025;-70
2023/06/28 06:37:45;;;;;;;18.92;8.68;;;16.00;99.90;;;;;;5070559;28;20128;-70
2023/06/28 06:40:11;;;;;;;13.60;8.13;;;16.00;99.90;;;;;;5070068;28;20066;-70
2023/06/28 06:42:38;;;;;;;15.65;8.30;;;16.00;99.90;;;;;;5068838;28;20029;-70
2023/06/28 06:45:05;;;;;;;13.40;7.85;;;16.00;99.90;;;;;;5069834;28;20440;-70
2023/06/28 06:47:30;;;;;;;12.75;7.47;;;16.00;99.90;;;;;;5070414;28;20040;-70
2023/06/28 06:49:56;;;;;;;12.65;7.60;;;16.10;99.90;;;;;;5070055;28;20390;-70
2023/06/28 06:52:21;;;;;;;13.00;8.40;;;16.20;99.90;;;;;;5070135;28;20056;-70
2023/06/28 06:54:47;;;;;;;15.38;8.07;;;16.30;99.90;;;;;;5070485;28;20017;-70
2023/06/28 06:57:14;;;;;;;15.05;8.52;;;16.40;99.90;;;;;;5068747;28;20025;-70
2023/06/28 06:59:40;;;;;;;13.10;7.63;;;16.50;99.90;;;;;;5070573;28;20024;-70
2023/06/28 07:02:05;;;;;;;12.30;8.45;;;16.50;99.90;;;;;;5069983;28;20089;-70
2023/06/28 07:04:31;;;;;;;15.85;7.93;;;16.50;99.90;;;;;;5062484;28;20108;-70
2023/06/28 07:06:57;;;;;;;17.33;8.70;;;16.60;99.90;;;;;;5070090;28;20379;-70
2023/06/28 07:09:24;;;;;;;16.75;9.00;;;16.60;99.90;;;;;;5070218;28;20056;-70
2023/06/28 07:11:49;;;;;;;13.82;7.55;;;16.70;99.90;;;;;;5070114;28;20028;-70
2023/06/28 07:14:15;;;;;;;12.13;7.82;;;16.70;99.90;;;;;;5070128;28;20074;-70
2023/06/28 07:16:44;;;;;;;15.57;8.13;;;16.70;99.90;;;;;;5070251;28;20112;-70
2023/06/28 07:19:11;;;;;;;15.93;8.07;;;16.80;99.90;;;;;;5069615;28;20013;-70
2023/06/28 07:21:36;;;;;;;12.90;7.22;;;16.90;99.90;;;;;;5070664;28;20386;-70
2023/06/28 07:24:02;;;;;;;13.75;7.60;;;17.00;99.90;;;;;;5069530;28;20163;-70
2023/06/28 07:26:28;;;;;;;14.35;8.30;;;17.20;99.90;;;;;;5070191;28;20021;-70
2023/06/28 07:28:54;;;;;;;16.60;7.75;;;17.20;99.90;;;;;;5068103;28;20386;-71
2023/06/28 07:31:20;;;;;;;12.20;7.82;;;17.30;99.90;;;;;;5072052;28;20051;-70
2023/06/28 07:33:46;;;;;;;13.13;7.85;;;17.40;99.90;;;;;;5073333;28;20032;-70
2023/06/28 07:36:11;;;;;;;13.18;8.27;;;17.50;99.90;;;;;;5073187;28;20029;-70
2023/06/28 07:38:37;;;;;;;14.23;8.30;;;17.60;99.90;;;;;;5073511;28;20059;-70
2023/06/28 07:41:02;;;;;;;15.23;7.97;;;17.70;99.90;;;;;;5073084;28;20035;-70
2023/06/28 07:43:28;;;;;;;11.43;7.57;;;17.60;99.90;;;;;;5073178;28;20478;-70
2023/06/28 07:45:58;;;;;;;12.15;6.38;;;17.60;99.90;;;;;;5073066;28;20435;-70
2023/06/28 07:48:24;;;;;;;14.30;7.05;;;17.60;99.90;;;;;;5073266;28;20036;-70
2023/06/28 07:50:50;;;;;;;15.75;7.47;;;17.60;99.90;;;;;;5073356;28;20417;-71
2023/06/28 07:53:15;;;;;;;14.00;6.90;;;17.60;99.90;;;;;;5073294;28;20031;-70
2023/06/28 07:55:41;;;;;;;12.80;7.50;;;17.60;99.90;;;;;;5073140;28;20025;-70
2023/06/28 07:58:06;;;;;;;14.30;7.15;;;17.70;99.90;;;;;;5073157;28;20040;-71
2023/06/28 08:00:32;;;;;;;16.63;7.28;;;17.70;99.90;;;;;;5073007;28;20028;-70
2023/06/28 08:03:01;;;;;;;11.25;6.90;;;17.80;99.90;;;;;;5057116;28;20108;-70
2023/06/28 08:05:26;;;;;;;10.85;6.90;;;17.80;99.90;;;;;;5063282;28;20024;-70
2023/06/28 08:07:55;;;;;;;14.40;7.13;;;17.80;99.90;;;;;;5072633;28;20021;-70
2023/06/28 08:10:22;;;;;;;19.08;7.90;;;17.80;99.90;;;;;;5072852;28;20028;-71
2023/06/28 08:12:47;;;;;;;15.07;7.50;;;17.80;99.90;;;;;;5072790;28;20039;-70
2023/06/28 08:15:13;;;;;;;12.60;7.07;;;17.90;99.90;;;;;;5072777;28;20025;-71
2023/06/28 08:17:39;;;;;;;12.10;6.70;;;17.90;99.90;;;;;;5072763;28;20029;-70
2023/06/28 08:20:06;;;;;;;12.88;6.88;;;17.90;99.90;;;;;;5072225;28;20450;-70
2023/06/28 08:22:31;;;;;;;12.35;6.53;;;17.90;99.90;;;;;;5072740;28;20390;-71
2023/06/28 08:24:57;;;;;;;14.27;6.43;;;17.90;99.90;;;;;;5072184;28;20048;-71
2023/06/28 08:27:22;;;;;;;11.90;6.88;;;17.90;99.90;;;;;;5072551;28;20024;-71
2023/06/28 08:29:48;;;;;;;10.48;5.78;;;17.90;99.90;;;;;;5072699;28;20036;-70
2023/06/28 08:32:13;;;;;;;15.77;6.57;;;17.90;99.90;;;;;;5072483;28;20021;-71
2023/06/28 08:34:39;;;;;;;10.35;5.63;;;17.90;99.90;;;;;;5072320;28;20051;-71
2023/06/28 08:37:06;;;;;;;13.38;6.80;;;17.90;99.90;;;;;;5072298;28;20032;-71
2023/06/28 08:39:31;;;;;;;14.15;6.60;;;17.90;99.90;;;;;;5072626;28;20028;-70
2023/06/28 08:42:00;;;;;;;13.93;6.90;;;17.90;99.90;;;;;;5071590;28;20028;-70
2023/06/28 08:44:28;;;;;;;13.07;5.60;;;17.90;99.90;;;;;;5072122;28;20044;-70
2023/06/28 08:46:54;;;;;;;10.18;5.60;;;18.00;99.90;;;;;;5071856;28;20488;-71
2023/06/28 08:49:20;;;;;;;11.32;6.15;;;18.10;99.90;;;;;;5072214;28;20033;-70
2023/06/28 08:51:46;;;;;;;14.00;6.70;;;18.10;99.90;;;;;;5072079;28;20523;-71
2023/06/28 08:54:13;;;;;;;10.52;6.50;;;18.20;99.90;;;;;;5071851;28;20031;-71
2023/06/28 08:56:40;;;;;;;13.68;7.03;;;18.40;99.90;;;;;;5072142;28;20025;-70
2023/06/28 08:59:06;;;;;;;13.10;6.90;;;18.50;99.90;;;;;;5071708;28;20058;-70
2023/06/28 09:01:33;;;;;;;10.85;6.47;;;18.50;99.90;;;;;;5056461;28;20021;-70
2023/06/28 09:03:59;;;;;;;13.52;6.97;;;18.50;99.90;;;;;;5065235;28;20123;-71
2023/06/28 09:06:28;;;;;;;13.85;7.43;;;18.50;99.90;;;;;;5071959;28;20053;-70
2023/06/28 09:08:54;;;;;;;13.75;7.32;;;18.60;99.90;;;;;;5071399;28;20490;-71
2023/06/28 09:11:20;;;;;;;13.25;7.20;;;18.50;99.90;;;;;;5071999;28;20515;-70
2023/06/28 09:13:45;;;;;;;14.45;7.07;;;18.50;99.90;;;;;;5071469;28;20051;-70
2023/06/28 09:16:11;;;;;;;13.68;7.18;;;18.50;99.90;;;;;;5071276;28;20029;-71
2023/06/28 09:18:37;;;;;;;13.10;6.53;;;18.50;99.90;;;;;;5071586;28;20051;-70
2023/06/28 09:21:04;;;;;;;17.95;7.45;;;18.50;99.90;;;;;;5071033;28;20020;-70
2023/06/28 09:23:33;;;;;;;11.07;6.05;;;18.60;99.90;;;;;;5071884;28;20091;-71
2023/06/28 09:25:58;;;;;;;11.85;6.80;;;18.60;99.90;;;;;;5070883;28;20045;-70
2023/06/28 09:28:34;;;;;;;15.25;7.45;;;18.70;99.90;;;;;;5071795;28;20040;-70
2023/06/28 09:31:01;;;;;;;11.20;7.10;;;18.80;99.90;;;;;;5070883;28;20025;-70
2023/06/28 09:33:27;;;;;;;11.23;6.78;;;18.80;99.90;;;;;;5071367;28;20024;-70
2023/06/28 09:35:56;;;;;;;12.25;6.30;;;18.80;99.90;;;;;;5071136;28;20504;-70
2023/06/28 09:38:23;;;;;;;12.20;6.88;;;18.90;99.90;;;;;;5071359;28;20020;-70
2023/06/28 09:40:59;;;;;;;10.38;6.72;;;18.90;99.90;;;;;;5070110;28;20028;-70
2023/06/28 09:43:31;;;;;;;14.13;6.13;;;18.90;99.90;;;;;;5071170;28;20029;-70
2023/06/28 09:45:56;;;;;;;10.70;6.07;;;18.90;99.90;;;;;;5069677;28;20454;-70
2023/06/28 09:48:24;;;;;;;11.88;6.57;;;18.90;99.90;;;;;;5071047;28;20273;-70
2023/06/28 09:50:50;;;;;;;12.30;6.18;;;18.90;99.90;;;;;;5070841;28;20074;-71
2023/06/28 09:53:17;;;;;;;13.13;6.07;;;19.00;99.90;;;;;;5070101;28;20036;-70
2023/06/28 09:55:44;;;;;;;12.68;6.53;;;19.10;99.90;;;;;;5071076;28;20103;-70
2023/06/28 09:58:12;;;;;;;11.32;5.55;;;19.20;99.90;;;;;;5069693;28;20554;-70
2023/06/28 10:00:39;;;;;;;15.10;6.63;;;19.40;99.90;;;;;;5060010;28;20052;-70
2023/06/28 10:03:07;;;;;;;10.30;5.68;;;19.50;99.90;;;;;;5070876;28;20047;-70
2023/06/28 10:05:35;;;;;;;9.98;5.30;;;19.70;99.90;;;;;;5071005;28;20024;-70
2023/06/28 10:08:03;;;;;;;9.85;5.55;;;19.90;99.90;;;;;;5070467;28;20020;-70
2023/06/28 10:10:30;;;;;;;10.55;5.90;;;20.10;99.90;;;;;;5070552;28;20033;-70
2023/06/28 10:12:59;;;;;;;13.30;5.47;;;20.20;99.90;;;;;;5069832;28;20039;-70
2023/06/28 10:15:25;;;;;;;10.30;5.50;;;20.30;99.90;;;;;;5071014;28;20031;-70
2023/06/28 10:17:51;;;;;;;13.15;5.97;;;20.40;99.90;;;;;;5069950;28;20028;-70
2023/06/28 10:20:17;;;;;;;10.15;5.50;;;20.50;99.90;;;;;;5070691;28;20060;-70
2023/06/28 10:22:44;;;;;;;12.05;5.95;;;20.60;99.90;;;;;;5071095;28;20037;-70
2023/06/28 10:25:10;;;;;;;10.23;5.38;;;20.60;99.90;;;;;;5070075;28;20087;-70
2023/06/28 10:27:36;;;;;;;13.73;5.50;;;20.80;99.90;;;;;;5070822;28;20057;-70
2023/06/28 10:30:03;;;;;;;10.02;5.00;;;21.00;99.90;;;;;;5070034;28;20078;-70
2023/06/28 10:32:28;;;;;;;10.77;5.22;;;21.20;99.90;;;;;;5070600;28;20025;-70
2023/06/28 10:34:57;;;;;;;12.40;5.75;;;21.50;99.90;;;;;;5070173;28;20021;-71
2023/06/28 10:37:24;;;;;;;8.13;5.47;;;21.70;99.90;;;;;;5070881;28;20032;-70
2023/06/28 10:39:53;;;;;;;10.80;4.90;;;21.90;99.90;;;;;;5070086;28;20017;-71
2023/06/28 10:42:19;;;;;;;9.98;5.15;;;22.10;99.90;;;;;;5070441;28;20131;-70
2023/06/28 10:44:56;;;;;;;12.90;5.35;;;22.30;99.90;;;;;;5070355;28;20036;-70
2023/06/28 10:47:22;;;;;;;12.27;5.60;;;22.40;99.90;;;;;;5070773;28;20029;-70
2023/06/28 10:50:09;;;;;;;14.23;6.30;;;22.50;99.90;;;;;;5070464;28;20024;-70
2023/06/28 10:52:35;;;;;;;11.05;5.20;;;22.70;99.90;;;;;;5070493;28;20123;-70
2023/06/28 10:55:03;;;;;;;9.60;6.63;;;22.90;99.90;;;;;;5069740;28;20016;-71
2023/06/28 10:57:39;;;;;;;12.25;5.53;;;23.00;99.90;;;;;;5066548;28;20368;-71
2023/06/28 11:00:29;;;;;;;13.45;5.57;;;23.00;99.90;;;;;;5053227;28;20021;-70
2023/06/28 11:03:00;;;;;;;10.32;5.13;;;23.00;99.90;;;;;;5060264;28;20042;-70
2023/06/28 11:05:45;;;;;;;13.70;6.43;;;23.10;99.90;;;;;;5073096;28;20028;-70
2023/06/28 11:08:12;;;;;;;14.77;5.45;;;23.30;99.90;;;;;;5073578;28;20395;-70
2023/06/28 11:10:40;;;;;;;10.25;5.20;;;23.40;99.90;;;;;;5073939;28;20032;-70
2023/06/28 11:13:10;;;;;;;11.05;5.38;;;23.50;99.90;;;;;;5073560;28;20036;-70
2023/06/28 11:15:42;;;;;;;10.10;5.72;;;23.50;99.90;;;;;;5074221;28;20386;-71
2023/06/28 11:18:18;;;;;;;9.15;4.85;;;23.70;99.90;;;;;;5073674;28;20362;-71
2023/06/28 11:20:56;;;;;;;11.43;5.88;;;23.80;99.90;;;;;;5073856;28;20024;-70
2023/06/28 11:23:39;;;;;;;7.95;4.72;;;23.90;99.90;;;;;;5073760;28;20033;-71
2023/06/28 11:26:06;;;;;;;9.95;4.63;;;24.00;99.90;;;;;;5072839;28;20170;-70
2023/06/28 11:28:35;;;;;;;12.63;5.20;;;24.10;99.90;;;;;;5073607;28;20028;-71
2023/06/28 11:31:38;;;;;;;12.18;5.32;;;24.20;99.90;;;;;;5053337;28;20017;-70
2023/06/28 11:34:04;;;;;;;9.75;5.50;;;24.30;99.90;;;;;;5056253;28;20494;-71
2023/06/28 11:36:31;;;;;;;10.98;5.55;;;24.40;99.90;;;;;;5073549;28;20040;-71
2023/06/28 11:38:56;;;;;;;12.10;6.18;;;24.50;99.90;;;;;;5071568;28;20020;-71
2023/06/28 11:41:22;;;;;;;10.57;5.25;;;24.60;99.90;;;;;;5073591;28;20024;-71
2023/06/28 11:43:48;;;;;;;9.43;5.07;;;24.70;99.90;;;;;;5073351;28;20032;-71
2023/06/28 11:46:18;;;;;;;12.80;5.72;;;24.90;99.90;;;;;;5073485;28;20099;-71
2023/06/28 11:48:45;;;;;;;11.10;4.65;;;25.10;99.90;;;;;;5073593;28;20486;-71
2023/06/28 11:51:12;;;;;;;7.47;4.47;;;25.20;99.90;;;;;;5073056;28;20032;-71
2023/06/28 11:53:38;;;;;;;7.25;4.40;;;25.30;99.90;;;;;;5073355;28;20099;-72
2023/06/28 11:56:04;;;;;;;9.93;4.90;;;25.30;99.90;;;;;;5070207;28;20502;-71
2023/06/28 11:58:34;;;;;;;7.43;3.95;;;25.40;99.50;;;;;;5071716;28;20025;-71
2023/06/28 12:01:01;;;;;;;10.68;4.30;;;25.40;99.30;;;;;;5072618;28;20490;-70
2023/06/28 12:03:35;;;;;;;9.10;4.45;;;25.50;99.20;;;;;;5072735;28;20040;-71
2023/06/28 12:06:02;;;;;;;7.05;4.57;;;25.60;98.60;;;;;;5072553;28;20556;-71
2023/06/28 12:08:35;;;;;;;11.07;4.70;;;25.70;98.50;;;;;;5073134;28;20024;-71
2023/06/28 12:11:06;;;;;;;11.68;5.13;;;25.90;98.30;;;;;;5072692;28;20033;-71
2023/06/28 12:13:33;;;;;;;10.15;5.32;;;26.00;97.20;;;;;;5072954;28;20047;-71
2023/06/28 12:16:21;;;;;;;7.30;4.60;;;25.90;96.80;;;;;;5070487;28;20028;-71
2023/06/28 12:18:59;;;;;;;12.05;5.40;;;25.90;96.70;;;;;;5072699;28;20016;-71
2023/06/28 12:21:32;;;;;;;11.90;5.45;;;25.90;96.20;;;;;;5072914;28;20028;-71
2023/06/28 12:24:31;;;;;;;7.65;4.40;;;25.90;96.60;;;;;;5071988;28;20490;-71
2023/06/28 12:26:58;;;;;;;9.57;4.95;;;26.10;96.60;;;;;;5059565;28;20398;-70
2023/06/28 12:29:25;;;;;;;11.75;5.38;;;26.20;95.60;;;;;;5055799;28;20040;-71
2023/06/28 12:31:53;;;;;;;10.85;4.57;;;26.20;95.80;;;;;;5066704;28;20103;-71
2023/06/28 12:34:23;;;;;;;9.73;5.22;;;26.30;95.30;;;;;;5072744;28;20445;-71
2023/06/28 12:36:53;;;;;;;7.63;4.85;;;26.50;94.70;;;;;;5072277;28;20081;-71
2023/06/28 12:39:31;;;;;;;6.55;4.25;;;26.60;95.10;;;;;;5072500;28;20024;-71